Time;durP1;ratioP1;P1;durP2;ratioP2;P2;SDS_P1;SDS_P2;PMS_P1;PMS_P2;Temp;Humidity;BMP_temperature;BMP_pressure;BME280_temperature;BME280_humidity;BME280_pressure;Samples;Min_cycle;Max_cycle;Signal;HPM_P1;HPM_P2
2022/11/09 00:00:23;;;;;;;;;;;;;;;7.39;100.00;100346.88;3056833;19;20362;-52
2022/11/09 00:01:28;;;;;;;;;;;;;;;7.41;100.00;100342.38;3056785;19;19915;-53
2022/11/09 00:02:30;;;;;;;;;;;;;;;7.45;100.00;100346.59;3057592;19;19949;-50
2022/11/09 00:03:35;;;;;;;;;;;;;;;7.47;100.00;100346.50;3057448;19;19930;-52
2022/11/09 00:04:40;;;;;;;;;;;;;;;7.47;100.00;100344.72;3056957;19;19926;-49
2022/11/09 00:05:42;;;;;;;;;;;;;;;7.51;100.00;100343.59;3057562;19;19978;-51
2022/11/09 00:06:46;;;;;;;;;;;;;;;7.52;100.00;100345.31;3057608;19;19945;-52
2022/11/09 00:07:48;;;;;;;;;;;;;;;7.55;100.00;100339.00;3057489;19;19938;-49
2022/11/09 00:08:53;;;;;;;;;;;;;;;7.57;100.00;100343.31;3057946;19;19926;-50
2022/11/09 00:09:55;;;;;;;;;;;;;;;7.59;100.00;100335.25;3057338;19;19918;-53
2022/11/09 00:11:06;;;;;;;;;;;;;;;7.61;100.00;100345.81;3057601;19;19915;-51
2022/11/09 00:12:08;;;;;;;;;;;;;;;7.62;100.00;100348.34;3057137;19;19941;-51
2022/11/09 00:13:12;;;;;;;;;;;;;;;7.65;100.00;100342.03;3057449;19;19915;-49
2022/11/09 00:14:19;;;;;;;;;;;;;;;7.66;100.00;100347.28;3057233;19;20262;-52
2022/11/09 00:15:21;;;;;;;;;;;;;;;7.70;100.00;100350.63;3057525;19;19935;-50
2022/11/09 00:16:25;;;;;;;;;;;;;;;7.73;100.00;100342.53;3057535;19;19930;-48
2022/11/09 00:17:27;;;;;;;;;;;;;;;7.73;100.00;100339.88;3056778;19;20035;-50
2022/11/09 00:18:32;;;;;;;;;;;;;;;7.76;100.00;100342.34;3057313;19;19958;-49
2022/11/09 00:19:33;;;;;;;;;;;;;;;7.78;100.00;100348.44;3057277;19;19942;-52
2022/11/09 00:20:38;;;;;;;;;;;;;;;7.79;100.00;100340.38;3057312;19;20012;-51
2022/11/09 00:21:50;;;;;;;;;;;;;;;7.82;100.00;100342.03;3057084;19;19919;-51
2022/11/09 00:22:52;;;;;;;;;;;;;;;7.84;100.00;100340.16;3057338;19;20672;-53
2022/11/09 00:23:56;;;;;;;;;;;;;;;7.85;100.00;100341.84;3057168;19;19932;-53
2022/11/09 00:24:58;;;;;;;;;;;;;;;7.86;100.00;100338.25;3057811;19;19922;-53
2022/11/09 00:26:03;;;;;;;;;;;;;;;7.87;100.00;100338.19;3057129;19;19919;-52
2022/11/09 00:27:04;;;;;;;;;;;;;;;7.89;100.00;100335.44;3057555;19;19927;-50
2022/11/09 00:28:09;;;;;;;;;;;;;;;7.90;100.00;100339.81;3057045;19;19941;-53
2022/11/09 00:29:11;;;;;;;;;;;;;;;7.90;100.00;100334.50;3057184;19;20269;-51
2022/11/09 00:30:15;;;;;;;;;;;;;;;7.92;100.00;100340.59;3057049;19;19927;-51
2022/11/09 00:31:20;;;;;;;;;;;;;;;7.92;100.00;100344.13;3056367;19;20372;-53
2022/11/09 00:32:25;;;;;;;;;;;;;;;7.93;100.00;100342.31;3055998;19;20246;-52
2022/11/09 00:33:28;;;;;;;;;;;;;;;7.93;100.00;100340.53;3056500;19;19918;-51
2022/11/09 00:34:33;;;;;;;;;;;;;;;7.95;100.00;100337.78;3056284;19;20310;-52
2022/11/09 00:35:36;;;;;;;;;;;;;;;7.95;100.00;100337.78;3056984;19;20207;-51
2022/11/09 00:36:41;;;;;;;;;;;;;;;7.95;100.00;100338.66;3056843;19;19946;-52
2022/11/09 00:37:43;;;;;;;;;;;;;;;7.97;100.00;100341.19;3055856;19;19970;-53
2022/11/09 00:38:54;;;;;;;;;;;;;;;7.97;100.00;100343.84;3055877;19;19918;-52
2022/11/09 00:39:55;;;;;;;;;;;;;;;7.98;100.00;100345.56;3056025;19;19944;-50
2022/11/09 00:41:02;;;;;;;;;;;;;;;7.97;100.00;100344.72;3055941;19;20616;-50
2022/11/09 00:42:06;;;;;;;;;;;;;;;7.98;100.00;100356.19;3057026;19;20231;-50
2022/11/09 00:43:10;;;;;;;;;;;;;;;7.97;100.00;100347.38;3056721;19;20471;-53
2022/11/09 00:44:12;;;;;;;;;;;;;;;7.97;100.00;100350.03;3057449;19;19923;-51
2022/11/09 00:45:17;;;;;;;;;;;;;;;7.99;100.00;100349.94;3056129;19;19946;-53
2022/11/09 00:46:19;;;;;;;;;;;;;;;7.99;100.00;100351.75;3056606;19;19922;-51
2022/11/09 00:47:26;;;;;;;;;;;;;;;7.98;100.00;100353.53;3055393;19;20361;-54
2022/11/09 00:48:28;;;;;;;;;;;;;;;8.01;100.00;100348.06;3056338;19;19927;-51
2022/11/09 00:49:32;;;;;;;;;;;;;;;8.01;100.00;100344.56;3055792;19;19915;-53
2022/11/09 00:50:34;;;;;;;;;;;;;;;8.01;100.00;100342.75;3056374;19;19973;-50
2022/11/09 00:51:39;;;;;;;;;;;;;;;8.00;100.00;100341.03;3056285;19;19926;-50
2022/11/09 00:52:41;;;;;;;;;;;;;;;7.99;100.00;100349.94;3056865;19;20308;-51
2022/11/09 00:53:47;;;;;;;;;;;;;;;8.00;100.00;100346.34;3055561;19;20014;-51
2022/11/09 00:54:49;;;;;;;;;;;;;;;7.99;100.00;100349.09;3055956;19;19927;-51
2022/11/09 00:56:00;;;;;;;;;;;;;;;7.99;100.00;100355.25;3056005;19;19918;-51
2022/11/09 00:57:01;;;;;;;;;;;;;;;8.00;100.00;100356.97;3055865;19;19971;-52
2022/11/09 00:58:06;;;;;;;;;;;;;;;8.00;100.00;100346.34;3055483;19;19926;-50
2022/11/09 00:59:09;;;;;;;;;;;;;;;7.98;100.00;100348.22;3056024;19;19945;-52
2022/11/09 01:00:15;;;;;;;;;;;;;;;8.00;100.00;100351.66;3055959;19;19935;-52
2022/11/09 01:01:17;;;;;;;;;;;;;;;7.98;100.00;100348.22;3055538;19;20281;-53
2022/11/09 01:02:21;;;;;;;;;;;;;;;8.01;100.00;100353.38;3056146;19;19923;-51
2022/11/09 01:03:24;;;;;;;;;;;;;;;8.01;100.00;100350.72;3055663;19;19935;-51
2022/11/09 01:04:28;;;;;;;;;;;;;;;8.02;100.00;100349.78;3055229;19;20250;-50
2022/11/09 01:05:30;;;;;;;;;;;;;;;8.03;100.00;100355.97;3055748;19;19954;-52
2022/11/09 01:06:34;;;;;;;;;;;;;;;8.03;100.00;100353.31;3056937;19;20337;-51
2022/11/09 01:07:36;;;;;;;;;;;;;;;8.01;100.00;100353.38;3056539;19;19941;-52
2022/11/09 01:08:41;;;;;;;;;;;;;;;8.02;100.00;100354.25;3056730;19;19938;-51
2022/11/09 01:09:43;;;;;;;;;;;;;;;7.99;100.00;100360.59;3056537;19;19915;-50
2022/11/09 01:10:48;;;;;;;;;;;;;;;7.99;100.00;100351.75;3056872;19;19949;-51
2022/11/09 01:11:52;;;;;;;;;;;;;;;7.97;100.00;100362.44;3056363;19;19938;-52
2022/11/09 01:12:56;;;;;;;;;;;;;;;7.95;100.00;100357.25;3056641;19;20365;-51
2022/11/09 01:14:01;;;;;;;;;;;;;;;7.95;100.00;100359.03;3055202;19;19918;-50
2022/11/09 01:15:03;;;;;;;;;;;;;;;7.94;100.00;100359.97;3055709;19;19922;-49
2022/11/09 01:16:15;;;;;;;;;;;;;;;7.92;100.00;100356.53;3056518;19;19918;-53
2022/11/09 01:17:20;;;;;;;;;;;;;;;7.90;100.00;100361.06;3056579;19;19923;-52
2022/11/09 01:18:21;;;;;;;;;;;;;;;7.89;100.00;100351.38;3055953;19;19939;-54
2022/11/09 01:19:30;;;;;;;;;;;;;;;7.88;100.00;100361.16;3056734;19;19926;-50
2022/11/09 01:20:32;;;;;;;;;;;;;;;7.86;100.00;100349.75;3056510;19;19927;-53
2022/11/09 01:21:36;;;;;;;;;;;;;;;7.86;100.00;100348.88;3056641;19;20319;-53
2022/11/09 01:22:38;;;;;;;;;;;;;;;7.85;100.00;100352.47;3056207;19;19941;-50
2022/11/09 01:23:43;;;;;;;;;;;;;;;7.84;100.00;100350.78;3056392;19;19944;-49
2022/11/09 01:24:45;;;;;;;;;;;;;;;7.83;100.00;100357.03;3056329;19;19939;-51
2022/11/09 01:25:50;;;;;;;;;;;;;;;7.80;100.00;100355.38;3056507;19;20386;-52
2022/11/09 01:26:54;;;;;;;;;;;;;;;7.79;100.00;100352.81;3055951;19;20230;-51
2022/11/09 01:27:57;;;;;;;;;;;;;;;7.79;100.00;100360.78;3056467;19;19927;-50
2022/11/09 01:29:02;;;;;;;;;;;;;;;7.77;100.00;100354.69;3056189;19;19926;-52
2022/11/09 01:30:07;;;;;;;;;;;;;;;7.73;100.00;100353.97;3057109;19;19927;-51
2022/11/09 01:31:13;;;;;;;;;;;;;;;7.72;100.00;100351.44;3055357;19;19939;-50
2022/11/09 01:32:15;;;;;;;;;;;;;;;7.69;100.00;100354.22;3055506;19;19935;-50
2022/11/09 01:33:19;;;;;;;;;;;;;;;7.67;100.00;100358.75;3055019;19;19915;-51
2022/11/09 01:34:24;;;;;;;;;;;;;;;7.67;100.00;100361.41;3056555;19;20406;-50
2022/11/09 01:35:26;;;;;;;;;;;;;;;7.63;100.00;100355.41;3056049;19;19927;-51
2022/11/09 01:36:31;;;;;;;;;;;;;;;7.62;100.00;100355.47;3056736;19;19930;-53
2022/11/09 01:37:34;;;;;;;;;;;;;;;7.57;100.00;100356.59;3055302;19;19919;-53
2022/11/09 01:38:39;;;;;;;;;;;;;;;7.55;100.00;100345.19;3055449;19;20016;-49
2022/11/09 01:39:42;;;;;;;;;;;;;;;7.53;100.00;100352.34;3055724;19;20299;-53
2022/11/09 01:40:47;;;;;;;;;;;;;;;7.50;100.00;100355.16;3055907;19;20354;-49
2022/11/09 01:41:48;;;;;;;;;;;;;;;7.48;100.00;100350.88;3054975;19;20583;-52
2022/11/09 01:42:53;;;;;;;;;;;;;;;7.48;100.00;100349.09;3055176;19;19986;-52
2022/11/09 01:44:29;;;;;;;;;;;;;;;7.44;100.00;100347.53;3055561;19;20330;-52
2022/11/09 01:45:32;;;;;;;;;;;;;;;7.43;100.00;100344.94;3054063;19;20249;-51
2022/11/09 01:46:37;;;;;;;;;;;;;;;7.40;100.00;100335.34;3056160;19;20009;-52
2022/11/09 01:47:39;;;;;;;;;;;;;;;7.39;100.00;100344.22;3054202;19;19998;-53
2022/11/09 01:48:52;;;;;;;;;;;;;;;7.38;100.00;100344.31;3055640;19;20349;-49
2022/11/09 01:49:55;;;;;;;;;;;;;;;7.36;100.00;100339.09;3055082;19;20508;-52
2022/11/09 01:51:01;;;;;;;;;;;;;;;7.33;100.00;100333.94;3054616;19;20129;-52
2022/11/09 01:52:10;;;;;;;;;;;;;;;7.32;100.00;100336.66;3053906;19;19927;-50
2022/11/09 01:53:17;;;;;;;;;;;;;;;7.31;100.00;100335.81;3055646;19;19919;-51
2022/11/09 01:54:21;;;;;;;;;;;;;;;7.29;100.00;100337.69;3055267;19;20294;-53
2022/11/09 01:55:26;;;;;;;;;;;;;;;7.27;100.00;100339.53;3054745;19;19918;-53
2022/11/09 01:56:30;;;;;;;;;;;;;;;7.26;100.00;100335.16;3055854;19;19919;-51
2022/11/09 01:57:33;;;;;;;;;;;;;;;7.24;100.00;100334.41;3054767;19;19979;-53
2022/11/09 01:58:47;;;;;;;;;;;;;;;7.21;100.00;100329.25;3055389;19;20315;-53
2022/11/09 01:59:50;;;;;;;;;;;;;;;7.19;100.00;100334.63;3054987;19;19915;-51
2022/11/09 02:00:55;;;;;;;;;;;;;;;7.17;100.00;100327.66;3056126;19;19927;-49
2022/11/09 02:01:57;;;;;;;;;;;;;;;7.15;100.00;100329.53;3055722;19;19922;-54
2022/11/09 02:03:06;;;;;;;;;;;;;;;7.13;100.00;100326.09;3055067;19;19957;-53
2022/11/09 02:04:16;;;;;;;;;;;;;;;7.11;100.00;100323.56;3054729;19;20397;-49
2022/11/09 02:05:19;;;;;;;;;;;;;;;7.10;100.00;100327.13;3055098;19;19986;-52
2022/11/09 02:06:27;;;;;;;;;;;;;;;7.08;100.00;100320.19;3054870;19;19936;-51
2022/11/09 02:07:29;;;;;;;;;;;;;;;7.07;100.00;100321.13;3055165;19;20210;-50
2022/11/09 02:08:35;;;;;;;;;;;;;;;7.03;100.00;100319.53;3054786;19;20376;-53
2022/11/09 02:09:38;;;;;;;;;;;;;;;7.03;100.00;100323.06;3055188;19;19915;-52
2022/11/09 02:10:45;;;;;;;;;;;;;;;7.03;100.00;100319.53;3054603;19;19922;-49
2022/11/09 02:11:47;;;;;;;;;;;;;;;7.02;100.00;100320.47;3055283;19;20331;-52
2022/11/09 02:12:52;;;;;;;;;;;;;;;7.01;100.00;100321.41;3054423;19;19923;-50
2022/11/09 02:13:54;;;;;;;;;;;;;;;7.00;100.00;100322.38;3055357;19;20054;-52
2022/11/09 02:14:59;;;;;;;;;;;;;;;7.00;100.00;100325.88;3054534;19;19919;-51
2022/11/09 02:16:01;;;;;;;;;;;;;;;6.97;100.00;100320.72;3055111;19;20238;-52
2022/11/09 02:17:05;;;;;;;;;;;;;;;6.96;100.00;100319.00;3054712;19;20334;-53
2022/11/09 02:18:07;;;;;;;;;;;;;;;6.97;100.00;100317.19;3055142;19;19999;-52
2022/11/09 02:19:12;;;;;;;;;;;;;;;6.95;100.00;100319.06;3054519;19;19934;-52
2022/11/09 02:20:14;;;;;;;;;;;;;;;6.94;100.00;100315.56;3056461;19;19926;-53
2022/11/09 02:21:19;;;;;;;;;;;;;;;6.93;100.00;100310.31;3054519;19;20018;-52
2022/11/09 02:22:21;;;;;;;;;;;;;;;6.92;100.00;100313.91;3055271;19;19919;-50
2022/11/09 02:23:26;;;;;;;;;;;;;;;6.91;100.00;100317.50;3054642;19;20353;-50
2022/11/09 02:24:28;;;;;;;;;;;;;;;6.90;100.00;100313.97;3054557;19;20323;-53
2022/11/09 02:25:32;;;;;;;;;;;;;;;6.88;100.00;100315.88;3054474;19;19917;-51
2022/11/09 02:26:37;;;;;;;;;;;;;;;6.86;100.00;100308.00;3055162;19;19919;-51
2022/11/09 02:27:41;;;;;;;;;;;;;;;6.85;100.00;100314.22;3054408;19;20051;-52
2022/11/09 02:28:43;;;;;;;;;;;;;;;6.85;100.00;100308.91;3054393;19;19914;-55
2022/11/09 02:29:48;;;;;;;;;;;;;;;6.84;100.00;100309.84;3055059;19;19919;-49
2022/11/09 02:30:50;;;;;;;;;;;;;;;6.83;100.00;100302.81;3054796;19;19914;-51
2022/11/09 02:31:57;;;;;;;;;;;;;;;6.83;100.00;100302.81;3054836;19;19922;-52
2022/11/09 02:32:59;;;;;;;;;;;;;;;6.83;100.00;100313.44;3054388;19;19926;-52
2022/11/09 02:34:04;;;;;;;;;;;;;;;6.82;100.00;100300.25;3054872;19;19965;-53
2022/11/09 02:35:06;;;;;;;;;;;;;;;6.80;100.00;100297.66;3054642;19;19919;-52
2022/11/09 02:36:12;;;;;;;;;;;;;;;6.81;100.00;100299.38;3054918;19;19973;-51
2022/11/09 02:37:24;;;;;;;;;;;;;;;6.80;100.00;100307.41;3055376;19;19930;-53
2022/11/09 02:38:29;;;;;;;;;;;;;;;6.80;100.00;100297.66;3055829;19;19914;-51
2022/11/09 02:39:34;;;;;;;;;;;;;;;6.81;100.00;100301.19;3053828;19;20349;-50
2022/11/09 02:40:37;;;;;;;;;;;;;;;6.80;100.00;100308.28;3055133;19;20224;-54
2022/11/09 02:41:46;;;;;;;;;;;;;;;6.79;100.00;100305.69;3054439;19;20006;-54
2022/11/09 02:42:47;;;;;;;;;;;;;;;6.79;100.00;100301.25;3054752;19;19954;-51
2022/11/09 02:43:52;;;;;;;;;;;;;;;6.79;100.00;100308.34;3054273;19;19919;-52
2022/11/09 02:44:56;;;;;;;;;;;;;;;6.78;100.00;100307.47;3054747;19;19962;-51
2022/11/09 02:46:00;;;;;;;;;;;;;;;6.79;100.00;100306.56;3053983;19;19958;-53
2022/11/09 02:47:02;;;;;;;;;;;;;;;6.79;100.00;100297.72;3054304;19;19918;-49
2022/11/09 02:48:07;;;;;;;;;;;;;;;6.79;100.00;100306.56;3054306;19;19982;-55
2022/11/09 02:49:10;;;;;;;;;;;;;;;6.80;100.00;100308.28;3054907;19;19922;-53
2022/11/09 02:50:15;;;;;;;;;;;;;;;6.79;100.00;100301.25;3054622;19;19918;-53
2022/11/09 02:51:17;;;;;;;;;;;;;;;6.81;100.00;100299.38;3055586;19;19911;-51
2022/11/09 02:52:21;;;;;;;;;;;;;;;6.81;100.00;100307.34;3054244;19;19922;-51
2022/11/09 02:53:24;;;;;;;;;;;;;;;6.82;100.00;100302.91;3054341;19;19949;-52
2022/11/09 02:54:28;;;;;;;;;;;;;;;6.83;100.00;100305.47;3054349;19;20286;-52
2022/11/09 02:55:31;;;;;;;;;;;;;;;6.84;100.00;100309.84;3054779;19;19983;-53
2022/11/09 02:56:36;;;;;;;;;;;;;;;6.86;100.00;100308.00;3054645;19;19926;-52
2022/11/09 02:57:38;;;;;;;;;;;;;;;6.88;100.00;100309.72;3054690;19;19922;-49
2022/11/09 02:58:42;;;;;;;;;;;;;;;6.88;100.00;100304.41;3054297;19;19925;-50
2022/11/09 02:59:44;;;;;;;;;;;;;;;6.89;100.00;100306.94;3055251;19;19922;-53
2022/11/09 03:00:49;;;;;;;;;;;;;;;6.90;100.00;100307.81;3054393;19;19915;-50
2022/11/09 03:01:51;;;;;;;;;;;;;;;6.91;100.00;100306.88;3054794;19;19923;-50
2022/11/09 03:02:55;;;;;;;;;;;;;;;6.91;100.00;100304.22;3056764;19;20460;-54
2022/11/09 03:03:57;;;;;;;;;;;;;;;6.93;100.00;100305.88;3058730;19;19934;-51
2022/11/09 03:05:01;;;;;;;;;;;;;;;6.93;100.00;100307.66;3058195;19;19919;-51
2022/11/09 03:06:09;;;;;;;;;;;;;;;6.95;100.00;100308.47;3057659;19;19919;-50
2022/11/09 03:07:11;;;;;;;;;;;;;;;6.97;100.00;100309.25;3057584;19;20364;-50
2022/11/09 03:08:16;;;;;;;;;;;;;;;6.98;100.00;100305.66;3057117;19;20437;-50
2022/11/09 03:09:19;;;;;;;;;;;;;;;6.99;100.00;100302.94;3057489;19;19919;-52
2022/11/09 03:10:23;;;;;;;;;;;;;;;7.00;100.00;100304.66;3057236;19;20309;-51
2022/11/09 03:11:25;;;;;;;;;;;;;;;7.01;100.00;100310.78;3057657;19;19923;-50
2022/11/09 03:12:33;;;;;;;;;;;;;;;7.02;100.00;100308.06;3057893;19;19971;-52
2022/11/09 03:13:44;;;;;;;;;;;;;;;7.04;100.00;100316.81;3057696;19;19926;-53
2022/11/09 03:14:49;;;;;;;;;;;;;;;7.05;100.00;100309.72;3057302;19;20318;-53
2022/11/09 03:15:51;;;;;;;;;;;;;;;7.05;100.00;100317.66;3057425;19;19915;-52
2022/11/09 03:16:56;;;;;;;;;;;;;;;7.07;100.00;100305.19;3057974;19;20293;-53
2022/11/09 03:17:58;;;;;;;;;;;;;;;7.07;100.00;100308.72;3058489;19;19949;-51
2022/11/09 03:19:03;;;;;;;;;;;;;;;7.08;100.00;100312.22;3057694;19;19923;-54
2022/11/09 03:20:05;;;;;;;;;;;;;;;7.07;100.00;100305.19;3057967;19;20346;-52
2022/11/09 03:21:10;;;;;;;;;;;;;;;7.09;100.00;100311.28;3057324;19;19923;-50
2022/11/09 03:22:11;;;;;;;;;;;;;;;7.09;100.00;100308.63;3057417;19;20332;-50
2022/11/09 03:23:16;;;;;;;;;;;;;;;7.09;100.00;100304.19;3056794;19;19979;-52
2022/11/09 03:24:18;;;;;;;;;;;;;;;7.11;100.00;100312.06;3057489;19;19925;-50
2022/11/09 03:25:23;;;;;;;;;;;;;;;7.12;100.00;100303.19;3057866;19;19987;-53
2022/11/09 03:26:25;;;;;;;;;;;;;;;7.13;100.00;100299.56;3058474;19;19933;-54
2022/11/09 03:27:29;;;;;;;;;;;;;;;7.14;100.00;100303.94;3057279;19;19970;-50
2022/11/09 03:28:31;;;;;;;;;;;;;;;7.15;100.00;100314.47;3057306;19;19931;-51
2022/11/09 03:29:36;;;;;;;;;;;;;;;7.16;100.00;100315.34;3056723;19;20352;-50
2022/11/09 03:30:41;;;;;;;;;;;;;;;7.17;100.00;100314.41;3057111;19;19922;-54
2022/11/09 03:31:43;;;;;;;;;;;;;;;7.18;100.00;100309.03;3057109;19;19949;-52
2022/11/09 03:32:47;;;;;;;;;;;;;;;7.19;100.00;100309.88;3056989;19;20040;-50
2022/11/09 03:33:51;;;;;;;;;;;;;;;7.19;100.00;100309.88;3056914;19;19925;-51
2022/11/09 03:34:56;;;;;;;;;;;;;;;7.21;100.00;100308.88;3057148;19;19919;-50
2022/11/09 03:35:58;;;;;;;;;;;;;;;7.22;100.00;100309.75;3057178;19;19923;-53
2022/11/09 03:37:02;;;;;;;;;;;;;;;7.23;100.00;100316.78;3056972;19;20020;-49
2022/11/09 03:38:08;;;;;;;;;;;;;;;7.26;100.00;100305.09;3056909;19;19954;-53
2022/11/09 03:39:10;;;;;;;;;;;;;;;7.25;100.00;100304.25;3057424;19;19923;-50
2022/11/09 03:40:14;;;;;;;;;;;;;;;7.25;100.00;100304.25;3058359;19;19919;-51
2022/11/09 03:41:17;;;;;;;;;;;;;;;7.26;100.00;100311.28;3057078;19;20338;-51
2022/11/09 03:42:21;;;;;;;;;;;;;;;7.27;100.00;100306.84;3057015;19;20349;-51
2022/11/09 03:43:23;;;;;;;;;;;;;;;7.28;100.00;100306.75;3057054;19;19926;-51
2022/11/09 03:44:28;;;;;;;;;;;;;;;7.29;100.00;100304.97;3056723;19;19994;-50
2022/11/09 03:45:32;;;;;;;;;;;;;;;7.28;100.00;100304.09;3058179;19;19915;-49
2022/11/09 03:46:34;;;;;;;;;;;;;;;7.30;100.00;100302.22;3057838;19;19926;-50
2022/11/09 03:47:41;;;;;;;;;;;;;;;7.29;100.00;100300.50;3056884;19;20472;-52
2022/11/09 03:48:43;;;;;;;;;;;;;;;7.27;100.00;100305.03;3057860;19;19915;-53
2022/11/09 03:49:48;;;;;;;;;;;;;;;7.27;100.00;100310.34;3057329;19;19930;-51
2022/11/09 03:50:49;;;;;;;;;;;;;;;7.28;100.00;100311.22;3057986;19;19922;-50
2022/11/09 03:51:54;;;;;;;;;;;;;;;7.26;100.00;100316.59;3058350;19;19998;-49
2022/11/09 03:52:56;;;;;;;;;;;;;;;7.25;100.00;100314.88;3057679;19;19946;-51
2022/11/09 03:54:00;;;;;;;;;;;;;;;7.21;100.00;100308.03;3057897;19;19945;-52
2022/11/09 03:55:03;;;;;;;;;;;;;;;7.19;100.00;100299.28;3057753;19;19915;-53
2022/11/09 03:56:07;;;;;;;;;;;;;;;7.18;100.00;100305.50;3056761;19;19939;-53
2022/11/09 03:57:09;;;;;;;;;;;;;;;7.15;100.00;100306.50;3056841;19;19925;-52
2022/11/09 03:58:14;;;;;;;;;;;;;;;7.14;100.00;100302.16;3056946;19;19919;-53
2022/11/09 03:59:16;;;;;;;;;;;;;;;7.10;100.00;100302.41;3058084;19;19959;-53
2022/11/09 04:00:21;;;;;;;;;;;;;;;7.10;100.00;100305.91;3057561;19;20322;-50
2022/11/09 04:01:23;;;;;;;;;;;;;;;7.10;100.00;100307.69;3056825;19;19915;-50
2022/11/09 04:02:28;;;;;;;;;;;;;;;7.09;100.00;100303.31;3057629;19;20004;-52
2022/11/09 04:03:29;;;;;;;;;;;;;;;7.07;100.00;100302.53;3057021;19;19923;-52
2022/11/09 04:04:34;;;;;;;;;;;;;;;7.04;100.00;100306.19;3056662;19;19919;-54
2022/11/09 04:05:36;;;;;;;;;;;;;;;7.00;100.00;100299.34;3057556;19;19935;-50
2022/11/09 04:06:40;;;;;;;;;;;;;;;6.99;100.00;100310.91;3057287;19;20310;-50
2022/11/09 04:07:49;;;;;;;;;;;;;;;6.96;100.00;100308.38;3056977;19;19922;-54
2022/11/09 04:08:53;;;;;;;;;;;;;;;6.93;100.00;100303.22;3055898;19;19946;-50
2022/11/09 04:09:55;;;;;;;;;;;;;;;6.90;100.00;100307.81;3058720;19;19919;-51
2022/11/09 04:11:00;;;;;;;;;;;;;;;6.88;100.00;100303.44;3056421;19;20243;-53
2022/11/09 04:12:02;;;;;;;;;;;;;;;6.85;100.00;100310.72;3058482;19;19930;-52
2022/11/09 04:13:07;;;;;;;;;;;;;;;6.85;100.00;100308.91;3056924;19;20444;-50
2022/11/09 04:14:09;;;;;;;;;;;;;;;6.82;100.00;100309.06;3056890;19;19919;-52
2022/11/09 04:15:13;;;;;;;;;;;;;;;6.80;100.00;100302.97;3056959;19;19922;-55
2022/11/09 04:16:18;;;;;;;;;;;;;;;6.80;100.00;100307.41;3056938;19;19923;-53
2022/11/09 04:17:20;;;;;;;;;;;;;;;6.79;100.00;100301.25;3056239;19;19927;-54
2022/11/09 04:18:24;;;;;;;;;;;;;;;6.79;100.00;100305.69;3057297;19;19922;-51
2022/11/09 04:19:26;;;;;;;;;;;;;;;6.79;100.00;100295.94;3057642;19;19941;-51
2022/11/09 04:20:31;;;;;;;;;;;;;;;6.76;100.00;100296.09;3057117;19;19990;-51
2022/11/09 04:21:33;;;;;;;;;;;;;;;6.76;100.00;100296.09;3055755;19;19935;-52
2022/11/09 04:22:38;;;;;;;;;;;;;;;6.76;100.00;100289.97;3056357;19;19923;-52
2022/11/09 04:23:40;;;;;;;;;;;;;;;6.75;100.00;100288.22;3056394;19;19933;-51
2022/11/09 04:24:44;;;;;;;;;;;;;;;6.73;100.00;100290.09;3057135;19;20389;-52
2022/11/09 04:25:46;;;;;;;;;;;;;;;6.74;100.00;100287.38;3057257;19;20577;-53
2022/11/09 04:26:54;;;;;;;;;;;;;;;6.75;100.00;100288.22;3057577;19;19943;-52
2022/11/09 04:27:56;;;;;;;;;;;;;;;6.74;100.00;100292.69;3055380;19;20266;-51
2022/11/09 04:29:01;;;;;;;;;;;;;;;6.74;100.00;100297.97;3056484;19;20047;-50
2022/11/09 04:30:03;;;;;;;;;;;;;;;6.74;100.00;100297.97;3058101;19;20477;-52
2022/11/09 04:31:08;;;;;;;;;;;;;;;6.75;100.00;100289.09;3057273;19;20272;-54
2022/11/09 04:32:10;;;;;;;;;;;;;;;6.75;100.00;100297.06;3058615;19;20315;-50
2022/11/09 04:33:14;;;;;;;;;;;;;;;6.72;100.00;100294.53;3056154;19;19919;-51
2022/11/09 04:34:16;;;;;;;;;;;;;;;6.72;100.00;100289.22;3056462;19;20379;-54
2022/11/09 04:35:21;;;;;;;;;;;;;;;6.72;100.00;100283.94;3057942;19;19931;-54
2022/11/09 04:36:25;;;;;;;;;;;;;;;6.69;100.00;100289.38;3056985;19;20218;-54
2022/11/09 04:37:29;;;;;;;;;;;;;;;6.69;100.00;100283.22;3057372;19;19941;-53
2022/11/09 04:38:35;;;;;;;;;;;;;;;6.68;100.00;100287.66;3056838;19;19926;-53
2022/11/09 04:39:37;;;;;;;;;;;;;;;6.69;100.00;100284.06;3057037;19;19941;-49
2022/11/09 04:40:41;;;;;;;;;;;;;;;6.69;100.00;100289.38;3056858;19;20238;-50
2022/11/09 04:41:43;;;;;;;;;;;;;;;6.68;100.00;100287.66;3056541;19;19923;-54
2022/11/09 04:42:47;;;;;;;;;;;;;;;6.68;100.00;100287.66;3057004;19;19915;-52
2022/11/09 04:43:52;;;;;;;;;;;;;;;6.68;100.00;100282.34;3057035;19;19922;-54
2022/11/09 04:44:53;;;;;;;;;;;;;;;6.67;100.00;100285.94;3057020;19;20051;-49
2022/11/09 04:46:01;;;;;;;;;;;;;;;6.67;100.00;100288.59;3057415;19;19926;-53
2022/11/09 04:47:02;;;;;;;;;;;;;;;6.65;100.00;100287.78;3056639;19;19927;-52
2022/11/09 04:48:07;;;;;;;;;;;;;;;6.66;100.00;100286.88;3057034;19;19927;-49
2022/11/09 04:49:09;;;;;;;;;;;;;;;6.64;100.00;100286.06;3056281;19;19918;-50
2022/11/09 04:50:14;;;;;;;;;;;;;;;6.64;100.00;100291.38;3056853;19;20029;-50
2022/11/09 04:51:18;;;;;;;;;;;;;;;6.63;100.00;100289.69;3057878;19;19915;-52
2022/11/09 04:52:20;;;;;;;;;;;;;;;6.64;100.00;100294.03;3058639;19;19996;-50
2022/11/09 04:53:24;;;;;;;;;;;;;;;6.62;100.00;100287.09;3056775;19;19943;-53
2022/11/09 04:54:29;;;;;;;;;;;;;;;6.61;100.00;100290.69;3057060;19;20337;-52
2022/11/09 04:55:31;;;;;;;;;;;;;;;6.60;100.00;100292.47;3057138;19;19927;-51
2022/11/09 04:56:35;;;;;;;;;;;;;;;6.58;100.00;100294.34;3056304;19;20222;-53
2022/11/09 04:57:37;;;;;;;;;;;;;;;6.57;100.00;100294.41;3057025;19;20386;-51
2022/11/09 04:58:42;;;;;;;;;;;;;;;6.55;100.00;100290.97;3056328;19;19926;-51
2022/11/09 04:59:43;;;;;;;;;;;;;;;6.54;100.00;100295.41;3057377;19;19923;-54
2022/11/09 05:00:48;;;;;;;;;;;;;;;6.53;100.00;100290.19;3056109;19;20334;-51
2022/11/09 05:01:50;;;;;;;;;;;;;;;6.52;100.00;100286.66;3057207;19;19992;-53
2022/11/09 05:02:54;;;;;;;;;;;;;;;6.51;100.00;100284.97;3055236;19;20261;-52
2022/11/09 05:03:59;;;;;;;;;;;;;;;6.51;100.00;100290.28;3055971;19;19930;-53
2022/11/09 05:05:01;;;;;;;;;;;;;;;6.49;100.00;100285.06;3056016;19;19926;-53
2022/11/09 05:06:30;;;;;;;;;;;;;;;6.49;100.00;100285.06;3057321;19;19923;-51
2022/11/09 05:07:27;;;;;;;;;;;;;;;6.49;100.00;100286.84;3057486;19;19940;-52
2022/11/09 05:08:32;;;;;;;;;;;;;;;6.48;100.00;100283.34;3057986;19;19919;-53
2022/11/09 05:09:36;;;;;;;;;;;;;;;6.47;100.00;100283.41;3056701;19;19945;-52
2022/11/09 05:10:38;;;;;;;;;;;;;;;6.46;100.00;100285.19;3056750;19;19923;-53
2022/11/09 05:11:43;;;;;;;;;;;;;;;6.44;100.00;100288.84;3056674;19;19918;-51
2022/11/09 05:12:44;;;;;;;;;;;;;;;6.42;100.00;100285.41;3057019;19;19918;-51
2022/11/09 05:13:50;;;;;;;;;;;;;;;6.41;100.00;100289.84;3056173;19;20010;-53
2022/11/09 05:14:52;;;;;;;;;;;;;;;6.41;100.00;100283.69;3056211;19;19946;-51
2022/11/09 05:15:56;;;;;;;;;;;;;;;6.38;100.00;100279.41;3055408;19;19915;-53
2022/11/09 05:16:58;;;;;;;;;;;;;;;6.37;100.00;100282.13;3056005;19;19930;-52
2022/11/09 05:18:03;;;;;;;;;;;;;;;6.34;100.00;100282.25;3055091;19;19914;-49
2022/11/09 05:19:05;;;;;;;;;;;;;;;6.34;100.00;100282.25;3056428;19;19935;-50
2022/11/09 05:20:09;;;;;;;;;;;;;;;6.34;100.00;100279.63;3056921;19;19923;-50
2022/11/09 05:21:11;;;;;;;;;;;;;;;6.33;100.00;100280.53;3056658;19;19923;-50
2022/11/09 05:24:50;;;;;;;;;;;;;;;6.33;100.00;100281.41;3056545;19;19919;-50
2022/11/09 05:25:52;;;;;;;;;;;;;;;6.33;100.00;100283.19;3055435;19;19919;-50
2022/11/09 05:26:56;;;;;;;;;;;;;;;6.33;100.00;100286.69;3054237;19;19962;-51
2022/11/09 05:27:58;;;;;;;;;;;;;;;6.34;100.00;100290.22;3054438;19;19928;-52
2022/11/09 05:29:03;;;;;;;;;;;;;;;6.28;100.00;100274.63;3055452;19;19915;-52
2022/11/09 05:30:06;;;;;;;;;;;;;;;6.34;100.00;100290.22;3054909;19;20476;-51
2022/11/09 05:31:10;;;;;;;;;;;;;;;6.32;100.00;100284.13;3056815;19;19994;-51